»·PEaware :: N3206 KSAN-KSFO

N3206 :: KSAN-KSFO

FLIGHT INFORMATION

Flight Status: Arrived
Operator: Privately registered:
United States
More flights under this callsign
Pilot: David I. (28153)
Aircraft: CESSNA 550 CITATION 2/S2/BRAVO
(C550)
More flights by this aircraft type
Origin: KSAN San Diego Intl-Lindbergh
United States
Destination: KSFO San Francisco Intl
United States
More flights between these airports :: More routes between these airports
Route: +PADRZ2 IKAYE RIZIN SPLNT STOKD SERFR SERFR4
File this flight plan on PilotEdge
Remarks:
Altitude:
(Current/Filed)
28,000ft
Speed:
(Current/Filed)
350kts
Departed: 23-Feb-20 03:11 PM
Arrived: 23-Feb-20 04:31 PM
Distance/Time
Traveled:
389nm/1:19
Distance/Time
To Go:
Arrived

Flight Plot

Page will automatically refresh every two minutes.

Flight plan parsing failed; only flown route is shown


Map Options




Map Legend


Flown Route
Filed Route
Departure Airport
Arrival Airport
Navaid (VOR, NDB)
Fix

Horizontal Profiles

Position Reports

Time Latitude Longitude Heading Altitude Ground
Speed
23-Feb-20 14:42 32.733990 -117.178711 111 22ft 0kts
23-Feb-20 14:43 32.733990 -117.178711 111 22ft 0kts
23-Feb-20 14:44 32.733990 -117.178711 111 22ft 0kts
23-Feb-20 14:45 32.733990 -117.178711 111 22ft 0kts
23-Feb-20 14:46 32.733990 -117.178711 111 22ft 0kts
23-Feb-20 14:47 32.733990 -117.178711 111 22ft 0kts
23-Feb-20 14:48 32.733990 -117.178711 111 22ft 0kts
23-Feb-20 14:49 32.733990 -117.178711 111 22ft 0kts
23-Feb-20 14:50 32.733990 -117.178711 111 22ft 0kts
23-Feb-20 14:51 32.733990 -117.178711 111 22ft 0kts
23-Feb-20 14:52 32.733990 -117.178711 111 22ft 0kts
23-Feb-20 14:53 32.733990 -117.178711 111 22ft 0kts
23-Feb-20 14:54 32.733990 -117.178711 111 22ft 0kts
23-Feb-20 14:55 32.733990 -117.178711 111 22ft 0kts
23-Feb-20 14:56 32.733990 -117.178711 111 22ft 0kts
23-Feb-20 14:57 32.733990 -117.178711 111 22ft 0kts
23-Feb-20 14:58 32.733990 -117.178711 111 22ft 0kts
23-Feb-20 14:59 32.733990 -117.178711 111 22ft 0kts
23-Feb-20 15:00 32.733990 -117.178711 111 22ft 0kts
23-Feb-20 15:01 32.733990 -117.178711 111 22ft 0kts
23-Feb-20 15:02 32.733990 -117.178711 111 22ft 0kts
23-Feb-20 15:03 32.733990 -117.178711 111 22ft 0kts
23-Feb-20 15:04 32.733827 -117.178626 195 22ft 1kts
23-Feb-20 15:05 32.733436 -117.179533 197 22ft 3kts
23-Feb-20 15:06 32.732232 -117.179456 108 22ft 4kts
23-Feb-20 15:07 32.731473 -117.176327 105 22ft 12kts
23-Feb-20 15:08 32.730966 -117.175530 145 22ft 0kts
23-Feb-20 15:09 32.730219 -117.175650 259 22ft 6kts
23-Feb-20 15:10 32.731860 -117.182636 286 40ft 122kts
23-Feb-20 15:11 32.754491 -117.232885 294 3239ft 213kts
23-Feb-20 15:12 32.787448 -117.295447 301 6840ft 236kts
23-Feb-20 15:13 32.828706 -117.361815 306 9922ft 254kts
23-Feb-20 15:14 32.872889 -117.432103 311 12240ft 281kts
23-Feb-20 15:15 32.921754 -117.507977 310 14328ft 295kts
23-Feb-20 15:16 32.971876 -117.586084 310 16406ft 297kts
23-Feb-20 15:17 33.021561 -117.663693 310 18475ft 293kts
23-Feb-20 15:18 33.072617 -117.737312 319 20550ft 285kts
23-Feb-20 15:19 33.130222 -117.797056 321 22599ft 278kts
23-Feb-20 15:20 33.191566 -117.859995 317 23704ft 301kts
23-Feb-20 15:21 33.252535 -117.931819 316 24723ft 315kts
23-Feb-20 15:23 33.315060 -118.006412 316 25736ft 320kts
23-Feb-20 15:24 33.378458 -118.082249 316 26748ft 321kts
23-Feb-20 15:25 33.441526 -118.157869 316 27751ft 320kts
23-Feb-20 15:26 33.504745 -118.233829 315 28302ft 331kts
23-Feb-20 15:27 33.571241 -118.313927 315 28301ft 347kts
23-Feb-20 15:28 33.640026 -118.396932 315 28303ft 355kts
23-Feb-20 15:29 33.711626 -118.483609 315 27375ft 376kts
23-Feb-20 15:30 33.781392 -118.568242 316 26307ft 368kts
23-Feb-20 15:31 33.848690 -118.650055 315 26297ft 352kts
23-Feb-20 15:32 33.917203 -118.733555 315 26299ft 348kts
23-Feb-20 15:33 33.984913 -118.816277 315 26301ft 346kts
23-Feb-20 15:34 34.052076 -118.898504 315 26305ft 345kts
23-Feb-20 15:35 34.119048 -118.980736 315 26311ft 345kts
23-Feb-20 15:36 34.175738 -119.073788 303 26301ft 347kts
23-Feb-20 15:37 34.227056 -119.173128 303 26300ft 348kts
23-Feb-20 15:38 34.278018 -119.272273 303 26302ft 348kts
23-Feb-20 15:39 34.328987 -119.371734 303 26300ft 348kts
23-Feb-20 15:39 34.371345 -119.454565 303 26296ft 348kts
23-Feb-20 15:41 34.437512 -119.564358 314 26292ft 347kts
23-Feb-20 15:42 34.504856 -119.647737 315 26291ft 347kts
23-Feb-20 15:42 34.560617 -119.716444 315 26292ft 347kts
23-Feb-20 15:43 34.628144 -119.799829 315 26291ft 347kts
23-Feb-20 15:45 34.707108 -119.897599 314 26294ft 347kts
23-Feb-20 15:45 34.763154 -119.967188 314 26290ft 347kts
23-Feb-20 15:46 34.830597 -120.051086 314 26294ft 346kts
23-Feb-20 15:47 34.897843 -120.134966 315 26312ft 346kts
23-Feb-20 15:48 34.965605 -120.219687 314 25778ft 358kts
23-Feb-20 15:49 35.036460 -120.308514 315 24754ft 370kts
23-Feb-20 15:50 35.106700 -120.394014 318 24335ft 338kts
23-Feb-20 15:51 35.175437 -120.471069 318 24338ft 340kts
23-Feb-20 15:52 35.245269 -120.549450 318 24338ft 341kts
23-Feb-20 15:53 35.315199 -120.628114 318 24337ft 342kts
23-Feb-20 15:54 35.384016 -120.705734 317 24340ft 342kts
23-Feb-20 15:55 35.454003 -120.784854 317 24339ft 343kts
23-Feb-20 15:56 35.527663 -120.859065 322 24338ft 342kts
23-Feb-20 15:57 35.603529 -120.929577 322 24338ft 342kts
23-Feb-20 15:58 35.679592 -121.000330 322 24337ft 343kts
23-Feb-20 15:59 35.755656 -121.071250 322 24336ft 343kts
23-Feb-20 16:00 35.831695 -121.142331 322 24336ft 344kts
23-Feb-20 16:01 35.907771 -121.213624 322 24336ft 344kts
23-Feb-20 16:02 35.983971 -121.285232 322 24351ft 344kts
23-Feb-20 16:03 36.059904 -121.356726 323 24381ft 344kts
23-Feb-20 16:04 36.121035 -121.405686 327 24398ft 344kts
23-Feb-20 16:05 36.214948 -121.479053 327 24403ft 345kts
23-Feb-20 16:06 36.296322 -121.542746 327 24405ft 346kts
23-Feb-20 16:07 36.377920 -121.606785 327 24039ft 354kts
23-Feb-20 16:08 36.461052 -121.672193 326 22536ft 354kts
23-Feb-20 16:09 36.544013 -121.737644 326 21032ft 339kts
23-Feb-20 16:10 36.621848 -121.799235 326 20221ft 323kts
23-Feb-20 16:11 36.697000 -121.858859 326 19517ft 319kts
23-Feb-20 16:12 36.777460 -121.903582 344 18808ft 319kts
23-Feb-20 16:13 36.860719 -121.939390 338 18124ft 316kts
23-Feb-20 16:14 36.942659 -121.977348 338 16582ft 313kts
23-Feb-20 16:15 37.022743 -122.015912 338 14558ft 302kts
23-Feb-20 16:16 37.097020 -122.050939 338 12534ft 271kts
23-Feb-20 16:17 37.163429 -122.081275 338 11182ft 238kts
23-Feb-20 16:18 37.226499 -122.085662 12 9880ft 231kts
23-Feb-20 16:19 37.289004 -122.061839 14 8586ft 244kts
23-Feb-20 16:20 37.355391 -122.036164 14 7285ft 252kts
23-Feb-20 16:21 37.421296 -122.010634 15 6046ft 242kts
23-Feb-20 16:22 37.472437 -122.030403 301 5549ft 200kts
23-Feb-20 16:23 37.498674 -122.090622 298 4737ft 190kts
23-Feb-20 16:24 37.523881 -122.149997 298 3760ft 201kts
23-Feb-20 16:25 37.547524 -122.206054 297 2784ft 153kts
23-Feb-20 16:26 37.567073 -122.252247 296 1937ft 142kts
23-Feb-20 16:27 37.582859 -122.289687 295 1244ft 109kts
23-Feb-20 16:28 37.595912 -122.320720 294 766ft 98kts
23-Feb-20 16:29 37.607898 -122.349403 291 233ft 84kts
23-Feb-20 16:30 37.615728 -122.367919 297 14ft 30kts
23-Feb-20 16:31 37.618318 -122.371144 28 14ft 1kts
23-Feb-20 16:32 37.618327 -122.371138 27 14ft 0kts
23-Feb-20 16:33 37.619621 -122.370277 28 14ft 13kts
23-Feb-20 16:34 37.621276 -122.371877 297 14ft 18kts
23-Feb-20 16:35 37.622903 -122.375767 297 14ft 18kts
23-Feb-20 16:36 37.625078 -122.380953 297 14ft 16kts
23-Feb-20 16:37 37.627199 -122.383718 293 14ft 0kts
23-Feb-20 16:38 37.627199 -122.383718 293 14ft 0kts
23-Feb-20 16:39 37.627199 -122.383718 293 14ft 0kts
23-Feb-20 16:40 37.627199 -122.383718 293 14ft 0kts
23-Feb-20 16:41 37.627199 -122.383718 293 14ft 0kts
23-Feb-20 16:42 37.627199 -122.383718 293 14ft 0kts
23-Feb-20 16:43 37.627199 -122.383718 293 14ft 0kts
23-Feb-20 16:44 37.627199 -122.383718 293 14ft 0kts

Navigation Log

Ident Type
Flight plan parsing failed, navigation log unavailable